createdAt,value
2024-03-02T00:01:25.675Z,3.03
2024-03-02T00:03:52.753Z,3.30
2024-03-02T00:06:25.006Z,3.53
2024-03-02T00:08:51.990Z,4.03
2024-03-02T00:11:19.356Z,3.20
2024-03-02T00:13:46.240Z,2.97
2024-03-02T00:16:12.661Z,3.50
2024-03-02T00:18:39.674Z,4.03
2024-03-02T00:21:11.865Z,3.47
2024-03-02T00:23:39.613Z,3.60
2024-03-02T00:26:06.629Z,3.80
2024-03-02T00:28:36.395Z,4.00
2024-03-02T00:31:05.218Z,3.63
2024-03-02T00:33:34.527Z,3.90
2024-03-02T00:36:02.259Z,3.30
2024-03-02T00:38:29.667Z,2.87
2024-03-02T00:40:57.759Z,3.10
2024-03-02T00:43:57.982Z,3.20
2024-03-02T00:46:25.164Z,3.60
2024-03-02T00:48:58.386Z,3.50
2024-03-02T00:51:27.472Z,3.90
2024-03-02T00:53:58.347Z,3.13
2024-03-02T00:56:25.839Z,3.90
2024-03-02T00:58:53.168Z,3.77
2024-03-02T01:01:20.815Z,3.30
2024-03-02T01:03:47.543Z,3.83
2024-03-02T01:06:14.130Z,3.23
2024-03-02T01:08:40.616Z,3.60
2024-03-02T01:11:07.187Z,3.60
2024-03-02T01:13:34.234Z,2.90
2024-03-02T01:16:01.065Z,3.07
2024-03-02T01:18:27.737Z,2.80
2024-03-02T01:20:56.217Z,2.30
2024-03-02T01:23:23.774Z,2.50
2024-03-02T01:25:51.793Z,2.80
2024-03-02T01:28:19.592Z,2.47
2024-03-02T01:30:46.070Z,2.57
2024-03-02T01:33:12.555Z,2.30
2024-03-02T01:35:39.013Z,2.27
2024-03-02T01:38:08.653Z,2.40
2024-03-02T01:40:35.559Z,2.20
2024-03-02T01:43:03.410Z,2.30
2024-03-02T01:45:30.264Z,2.47
2024-03-02T01:47:57.141Z,2.37
2024-03-02T01:50:32.036Z,2.20
2024-03-02T01:52:59.008Z,2.53
2024-03-02T01:55:26.433Z,2.20
2024-03-02T01:57:53.520Z,2.53
2024-03-02T02:00:21.202Z,2.80
2024-03-02T02:02:51.722Z,2.60
2024-03-02T02:05:18.640Z,1.90
2024-03-02T02:07:45.165Z,2.17
2024-03-02T02:10:12.047Z,2.00
2024-03-02T02:12:39.518Z,2.00
2024-03-02T02:15:23.386Z,2.13
2024-03-02T02:17:49.873Z,1.87
2024-03-02T02:20:16.369Z,2.20
2024-03-02T02:22:56.721Z,2.00
2024-03-02T02:25:23.129Z,2.67
2024-03-02T02:27:49.570Z,1.83
2024-03-02T02:30:20.812Z,2.07
2024-03-02T02:32:47.300Z,2.40
2024-03-02T02:35:13.876Z,2.00
2024-03-02T02:37:40.423Z,1.97
2024-03-02T02:40:07.356Z,2.27
2024-03-02T02:42:33.736Z,2.37
2024-03-02T02:45:00.181Z,2.30
2024-03-02T02:47:27.322Z,2.27
2024-03-02T02:49:53.837Z,2.37
2024-03-02T02:52:21.329Z,2.30
2024-03-02T02:54:47.869Z,2.43
2024-03-02T02:57:14.404Z,2.00
2024-03-02T02:59:40.794Z,2.00
2024-03-02T03:02:07.533Z,1.90
2024-03-02T03:04:33.914Z,1.80
2024-03-02T03:07:00.339Z,1.93
2024-03-02T03:09:26.821Z,2.33
2024-03-02T03:11:53.209Z,2.00
2024-03-02T03:14:19.707Z,2.60
2024-03-02T03:16:47.394Z,2.10
2024-03-02T03:19:13.773Z,2.37
2024-03-02T03:21:40.216Z,2.07
2024-03-02T03:24:06.679Z,2.50
2024-03-02T03:26:33.051Z,2.10
2024-03-02T03:28:59.714Z,2.70
2024-03-02T03:31:26.088Z,2.80
2024-03-02T03:33:52.554Z,2.90
2024-03-02T03:36:18.981Z,1.80
2024-03-02T03:38:45.365Z,2.23
2024-03-02T03:41:11.937Z,2.33
2024-03-02T03:43:38.514Z,2.30
2024-03-02T03:46:05.047Z,2.77
2024-03-02T03:48:31.963Z,2.10
2024-03-02T03:50:58.585Z,2.07
2024-03-02T03:53:25.365Z,2.20
2024-03-02T03:55:51.751Z,2.37
2024-03-02T03:58:22.729Z,2.33
2024-03-02T04:00:49.587Z,2.57
2024-03-02T04:03:16.132Z,2.27
2024-03-02T04:05:42.540Z,2.43
2024-03-02T04:08:08.896Z,2.50
2024-03-02T04:10:35.342Z,2.40
2024-03-02T04:13:01.800Z,2.00
2024-03-02T04:15:28.238Z,2.60
2024-03-02T04:17:54.795Z,2.87
2024-03-02T04:20:21.366Z,2.20
2024-03-02T04:22:48.121Z,1.90
2024-03-02T04:25:14.617Z,2.03
2024-03-02T04:27:42.186Z,2.00
2024-03-02T04:30:09.205Z,2.17
2024-03-02T04:32:37.164Z,2.77
2024-03-02T04:35:03.774Z,2.50
2024-03-02T04:37:30.165Z,2.50
2024-03-02T04:39:56.692Z,2.30
2024-03-02T04:42:23.658Z,2.30
2024-03-02T04:44:50.029Z,2.67
2024-03-02T04:47:16.521Z,2.77
2024-03-02T04:49:42.970Z,2.73
2024-03-02T04:52:09.402Z,3.00
2024-03-02T04:54:56.025Z,2.33
2024-03-02T04:57:22.539Z,2.33
2024-03-02T04:59:49.276Z,2.33
2024-03-02T05:02:16.120Z,2.23
2024-03-02T05:04:42.941Z,2.57
2024-03-02T05:07:09.442Z,2.60
2024-03-02T05:09:35.875Z,2.43
2024-03-02T05:12:30.254Z,2.70
2024-03-02T05:14:57.109Z,2.90
2024-03-02T05:17:23.576Z,2.40
2024-03-02T05:19:50.306Z,2.23
2024-03-02T05:22:17.682Z,1.93
2024-03-02T05:24:44.097Z,2.10
2024-03-02T05:27:10.511Z,2.47
2024-03-02T05:29:37.083Z,2.73
2024-03-02T05:32:03.555Z,2.37
2024-03-02T05:34:31.626Z,2.33
2024-03-02T05:36:58.896Z,2.40
2024-03-02T05:39:25.318Z,2.53
2024-03-02T05:41:51.698Z,3.10
2024-03-02T05:44:19.333Z,3.33
2024-03-02T05:46:45.956Z,2.70
2024-03-02T05:49:12.548Z,3.07
2024-03-02T05:51:39.014Z,3.10
2024-03-02T05:54:05.532Z,2.90
2024-03-02T05:56:32.198Z,2.47
2024-03-02T05:59:14.049Z,2.73
2024-03-02T06:01:41.711Z,2.70
2024-03-02T06:04:08.078Z,2.60
2024-03-02T06:06:34.998Z,3.57
2024-03-02T06:09:13.518Z,2.90
2024-03-02T06:11:41.396Z,2.77
2024-03-02T06:14:09.367Z,3.10
2024-03-02T06:16:36.176Z,3.30
2024-03-02T06:19:02.928Z,3.17
2024-03-02T06:21:29.508Z,2.90
2024-03-02T06:23:56.028Z,2.93
2024-03-02T06:26:25.823Z,3.50
2024-03-02T06:28:52.897Z,3.33
2024-03-02T06:31:19.349Z,3.13
2024-03-02T06:33:45.746Z,4.33
2024-03-02T06:36:12.909Z,3.70
2024-03-02T06:38:43.197Z,4.30
2024-03-02T06:41:09.954Z,3.47
2024-03-02T06:43:36.689Z,3.70
2024-03-02T06:46:03.642Z,3.70
2024-03-02T06:48:31.048Z,3.80
2024-03-02T06:50:58.419Z,3.03
2024-03-02T06:53:24.805Z,3.30
2024-03-02T06:55:51.203Z,3.80
2024-03-02T06:58:17.588Z,3.90
2024-03-02T07:00:45.080Z,4.53
2024-03-02T07:03:11.635Z,3.50
2024-03-02T07:05:38.078Z,4.03
2024-03-02T07:08:06.168Z,3.70
2024-03-02T07:10:32.692Z,4.00
2024-03-02T07:12:59.073Z,4.27
2024-03-02T07:15:28.403Z,4.57
2024-03-02T07:17:54.935Z,4.80
2024-03-02T07:20:21.635Z,4.90
2024-03-02T07:22:48.227Z,5.80
2024-03-02T07:27:45.021Z,6.07
2024-03-02T07:30:15.019Z,5.87
2024-03-02T07:32:42.820Z,4.43
2024-03-02T07:35:09.358Z,4.97
2024-03-02T07:37:35.758Z,4.87
2024-03-02T07:40:02.388Z,5.23
2024-03-02T07:42:29.194Z,4.97
2024-03-02T07:44:55.693Z,4.83
2024-03-02T07:47:22.138Z,4.77
2024-03-02T07:49:48.636Z,4.83
2024-03-02T07:52:15.596Z,4.57
2024-03-02T07:54:41.973Z,4.60
2024-03-02T07:57:09.526Z,4.70
2024-03-02T07:59:35.939Z,4.40
2024-03-02T08:02:02.659Z,3.73
2024-03-02T08:04:29.210Z,4.50
2024-03-02T08:06:56.025Z,5.13
2024-03-02T08:09:22.935Z,4.37
2024-03-02T08:11:49.537Z,3.97
2024-03-02T08:14:15.982Z,4.17
2024-03-02T08:16:42.549Z,3.63
2024-03-02T08:19:09.998Z,3.73
2024-03-02T08:21:36.836Z,3.93
2024-03-02T08:24:03.861Z,3.80
2024-03-02T08:26:32.528Z,3.40
2024-03-02T08:29:00.031Z,4.13
2024-03-02T08:31:26.386Z,3.83
2024-03-02T08:33:52.830Z,3.33
2024-03-02T08:36:20.326Z,3.30
2024-03-02T08:38:47.049Z,3.77
2024-03-02T08:41:14.761Z,3.13
2024-03-02T08:43:42.248Z,3.53
2024-03-02T08:46:08.844Z,3.00
2024-03-02T08:48:35.609Z,2.93
2024-03-02T08:51:02.146Z,3.10
2024-03-02T08:53:28.504Z,3.97
2024-03-02T08:55:57.383Z,3.27
2024-03-02T08:58:25.509Z,3.07
2024-03-02T09:00:52.131Z,2.67
2024-03-02T09:03:18.807Z,2.63
2024-03-02T09:05:45.897Z,2.47
2024-03-02T09:08:12.298Z,2.80
2024-03-02T09:10:40.600Z,2.13
2024-03-02T09:13:07.292Z,2.60
2024-03-02T09:15:37.011Z,2.27
2024-03-02T09:18:04.976Z,2.57
2024-03-02T09:20:31.393Z,2.37
2024-03-02T09:22:57.769Z,2.87
2024-03-02T09:25:24.168Z,2.73
2024-03-02T09:27:50.541Z,2.53
2024-03-02T09:30:16.999Z,2.10
2024-03-02T09:32:44.360Z,2.33
2024-03-02T09:35:12.967Z,2.00
2024-03-02T09:37:39.338Z,2.60
2024-03-02T09:40:07.282Z,2.63
2024-03-02T09:42:33.809Z,2.63
2024-03-02T09:45:00.383Z,2.83
2024-03-02T09:47:26.839Z,2.43
2024-03-02T09:49:53.457Z,2.10
2024-03-02T09:52:19.964Z,1.97
2024-03-02T09:54:48.996Z,2.00
2024-03-02T09:57:15.969Z,1.80
2024-03-02T09:59:42.364Z,1.60
2024-03-02T10:02:08.859Z,1.80
2024-03-02T10:04:37.097Z,1.83
2024-03-02T10:07:17.657Z,2.73
2024-03-02T10:09:46.654Z,1.90
2024-03-02T10:12:17.270Z,2.00
2024-03-02T10:14:44.723Z,1.63
2024-03-02T10:17:12.822Z,2.10
2024-03-02T10:19:40.407Z,1.83
2024-03-02T10:22:09.353Z,1.87
2024-03-02T10:24:39.072Z,2.20
2024-03-02T10:27:10.229Z,1.90
2024-03-02T10:29:41.559Z,2.40
2024-03-02T10:32:12.527Z,2.30
2024-03-02T10:34:41.496Z,1.80
2024-03-02T10:37:08.947Z,1.70
2024-03-02T10:39:36.793Z,2.27
2024-03-02T10:42:04.604Z,1.77
2024-03-02T10:44:31.979Z,1.80
2024-03-02T10:47:04.606Z,1.77
2024-03-02T10:49:32.436Z,1.50
2024-03-02T10:52:02.283Z,1.07
2024-03-02T10:54:36.840Z,1.43
2024-03-02T10:57:06.239Z,2.17
2024-03-02T10:59:37.907Z,1.63
2024-03-02T11:02:06.536Z,1.50
2024-03-02T11:04:35.774Z,1.80
2024-03-02T11:07:11.410Z,1.80
2024-03-02T11:10:00.898Z,1.50
2024-03-02T11:12:32.810Z,1.40
2024-03-02T11:14:59.566Z,1.50
2024-03-02T11:17:27.210Z,1.73
2024-03-02T11:19:53.865Z,2.10
2024-03-02T11:22:20.752Z,1.53
2024-03-02T11:24:52.316Z,1.50
2024-03-02T11:27:47.217Z,1.73
2024-03-02T11:30:32.677Z,1.43
2024-03-02T11:33:00.215Z,1.40
2024-03-02T11:35:27.316Z,1.40
2024-03-02T11:37:54.122Z,1.43
2024-03-02T11:40:23.534Z,1.50
2024-03-02T11:42:50.226Z,1.50
2024-03-02T11:45:35.181Z,1.80
2024-03-02T11:48:01.626Z,1.60
2024-03-02T11:50:31.681Z,1.30
2024-03-02T11:52:59.182Z,1.93
2024-03-02T11:55:30.011Z,2.60
2024-03-02T11:57:56.981Z,1.43
2024-03-02T12:00:23.443Z,1.20
2024-03-02T12:03:06.884Z,1.50
2024-03-02T12:05:34.408Z,1.50
2024-03-02T12:08:03.033Z,1.90
2024-03-02T12:10:30.551Z,2.40
2024-03-02T12:13:01.080Z,1.93
2024-03-02T12:15:29.297Z,1.20
2024-03-02T12:18:01.044Z,1.60
2024-03-02T12:20:30.030Z,2.17
2024-03-02T12:22:59.779Z,1.40
2024-03-02T12:25:27.090Z,3.10
2024-03-02T12:27:57.868Z,2.00
2024-03-02T12:30:24.915Z,2.63
2024-03-02T12:32:51.893Z,2.83
2024-03-02T12:35:19.451Z,1.70
2024-03-02T12:37:47.745Z,1.53
2024-03-02T12:40:15.488Z,1.40
2024-03-02T12:42:43.087Z,2.07
2024-03-02T12:45:10.292Z,1.67
2024-03-02T12:47:37.432Z,1.50
2024-03-02T12:50:05.313Z,1.40
2024-03-02T12:52:33.404Z,1.70
2024-03-02T12:55:05.464Z,1.73
2024-03-02T12:57:34.181Z,2.70
2024-03-02T13:00:09.991Z,1.60
2024-03-02T13:02:37.650Z,1.67
2024-03-02T13:05:04.586Z,1.60
2024-03-02T13:07:31.154Z,1.60
2024-03-02T13:09:58.053Z,1.60
2024-03-02T13:12:25.705Z,1.63
2024-03-02T13:14:55.628Z,1.67
2024-03-02T13:17:22.852Z,1.83
2024-03-02T13:19:53.872Z,1.20
2024-03-02T13:22:20.969Z,1.40
2024-03-02T13:24:47.351Z,1.47
2024-03-02T13:27:13.933Z,1.53
2024-03-02T13:29:40.387Z,1.40
2024-03-02T13:32:07.000Z,1.53
2024-03-02T13:34:33.408Z,1.20
2024-03-02T13:37:02.367Z,1.37
2024-03-02T13:39:31.799Z,1.30
2024-03-02T13:42:05.279Z,1.40
2024-03-02T13:44:31.953Z,1.50
2024-03-02T13:47:00.369Z,1.43
2024-03-02T13:49:35.093Z,1.20
2024-03-02T13:52:05.927Z,1.57
2024-03-02T13:54:32.892Z,2.07
2024-03-02T13:56:59.570Z,1.90
2024-03-02T13:59:26.197Z,1.70
2024-03-02T14:01:52.668Z,1.63
2024-03-02T14:04:19.136Z,1.47
2024-03-02T14:06:45.565Z,1.57
2024-03-02T14:09:11.924Z,1.40
2024-03-02T14:11:38.410Z,1.37
2024-03-02T14:14:04.776Z,1.53
2024-03-02T14:16:31.158Z,1.77
2024-03-02T14:18:57.963Z,1.47
2024-03-02T14:21:24.402Z,1.80
2024-03-02T14:23:51.029Z,1.63
2024-03-02T14:26:17.541Z,1.20
2024-03-02T14:28:49.945Z,1.20
2024-03-02T14:31:18.563Z,1.20
2024-03-02T14:33:45.045Z,1.43
2024-03-02T14:36:11.597Z,1.30
2024-03-02T14:38:38.970Z,1.50
2024-03-02T14:41:05.759Z,1.63
2024-03-02T14:43:32.250Z,1.43
2024-03-02T14:46:00.349Z,1.90
2024-03-02T14:48:27.033Z,1.83
2024-03-02T14:50:53.455Z,1.30
2024-03-02T14:53:20.243Z,1.53
2024-03-02T14:55:47.075Z,1.53
2024-03-02T14:58:13.454Z,1.90
2024-03-02T15:00:39.924Z,1.40
2024-03-02T15:03:09.439Z,1.30
2024-03-02T15:05:36.492Z,1.67
2024-03-02T15:08:05.368Z,1.90
2024-03-02T15:10:32.205Z,1.90
2024-03-02T15:12:59.505Z,1.50
2024-03-02T15:15:26.544Z,1.20
2024-03-02T15:17:53.538Z,1.60
2024-03-02T15:20:22.163Z,2.67
2024-03-02T15:22:48.528Z,2.17
2024-03-02T15:25:17.090Z,1.70
2024-03-02T15:27:44.111Z,1.97
2024-03-02T15:30:10.737Z,1.70
2024-03-02T15:32:37.929Z,2.40
2024-03-02T15:35:04.892Z,1.93
2024-03-02T15:37:31.546Z,2.43
2024-03-02T15:39:58.123Z,2.17
2024-03-02T15:42:24.645Z,1.83
2024-03-02T15:44:51.526Z,3.30
2024-03-02T15:47:17.972Z,2.37
2024-03-02T15:49:44.391Z,2.00
2024-03-02T15:52:10.861Z,1.73
2024-03-02T15:54:37.384Z,2.20
2024-03-02T15:57:04.062Z,1.90
2024-03-02T15:59:30.520Z,2.40
2024-03-02T16:01:58.752Z,2.07
2024-03-02T16:04:25.223Z,1.80
2024-03-02T16:06:51.708Z,2.27
2024-03-02T16:09:18.131Z,2.17
2024-03-02T16:11:44.488Z,3.77
2024-03-02T16:14:10.895Z,2.50
2024-03-02T16:16:37.391Z,3.10
2024-03-02T16:19:08.576Z,3.60
2024-03-02T16:21:40.728Z,2.20
2024-03-02T16:24:07.165Z,3.50
2024-03-02T16:26:34.053Z,2.20
2024-03-02T16:29:00.468Z,2.70
2024-03-02T16:31:26.994Z,2.70
2024-03-02T16:33:53.852Z,3.27
2024-03-02T16:36:21.518Z,2.87
2024-03-02T16:38:48.810Z,2.37
2024-03-02T16:41:17.500Z,2.83
2024-03-02T16:43:46.219Z,3.13
2024-03-02T16:46:12.713Z,2.00
2024-03-02T16:48:39.149Z,2.80
2024-03-02T16:51:05.632Z,2.57
2024-03-02T16:53:32.013Z,2.50
2024-03-02T16:56:02.214Z,3.07
2024-03-02T16:58:28.644Z,3.67
2024-03-02T17:00:55.124Z,2.93
2024-03-02T17:03:21.515Z,2.60
2024-03-02T17:05:47.950Z,3.20
2024-03-02T17:08:14.700Z,2.60
2024-03-02T17:10:41.373Z,3.17
2024-03-02T17:13:07.868Z,2.93
2024-03-02T17:15:34.321Z,3.00
2024-03-02T17:18:00.910Z,3.23
2024-03-02T17:20:27.680Z,3.67
2024-03-02T17:22:54.049Z,3.27
2024-03-02T17:25:20.449Z,2.13
2024-03-02T17:27:46.888Z,2.23
2024-03-02T17:30:14.706Z,2.30
2024-03-02T17:32:41.666Z,3.03
2024-03-02T17:35:08.165Z,2.27
2024-03-02T17:37:35.313Z,2.80
2024-03-02T17:40:01.846Z,2.23
2024-03-02T17:42:29.975Z,2.97
2024-03-02T17:44:56.531Z,2.50
2024-03-02T17:47:22.958Z,2.73
2024-03-02T17:49:50.581Z,2.43
2024-03-02T17:52:17.044Z,3.07
2024-03-02T17:54:43.473Z,2.33
2024-03-02T17:57:10.113Z,3.30
2024-03-02T17:59:38.431Z,2.57
2024-03-02T18:02:05.211Z,2.20
2024-03-02T18:04:31.624Z,1.90
2024-03-02T18:06:59.525Z,2.40
2024-03-02T18:09:26.164Z,2.07
2024-03-02T18:11:52.571Z,2.57
2024-03-02T18:14:19.073Z,2.30
2024-03-02T18:16:45.432Z,2.20
2024-03-02T18:19:11.849Z,1.93
2024-03-02T18:21:38.661Z,2.43
2024-03-02T18:24:06.252Z,2.27
2024-03-02T18:26:34.089Z,2.23
2024-03-02T18:29:00.696Z,2.47
2024-03-02T18:31:27.554Z,2.60
2024-03-02T18:33:54.066Z,3.30
2024-03-02T18:36:20.520Z,2.70
2024-03-02T18:38:46.945Z,3.40
2024-03-02T18:41:13.392Z,3.17
2024-03-02T18:43:39.773Z,3.40
2024-03-02T18:46:11.385Z,2.10
2024-03-02T18:48:37.925Z,2.47
2024-03-02T18:51:10.159Z,2.97
2024-03-02T18:53:37.545Z,2.57
2024-03-02T18:56:05.093Z,2.53
2024-03-02T18:58:31.654Z,2.43
2024-03-02T19:00:59.081Z,3.00
2024-03-02T19:03:25.611Z,3.13
2024-03-02T19:05:52.024Z,3.37
2024-03-02T19:08:20.458Z,3.20
2024-03-02T19:10:47.116Z,2.30
2024-03-02T19:13:13.710Z,3.03
2024-03-02T19:15:40.150Z,2.40
2024-03-02T19:18:06.638Z,2.97
2024-03-02T19:20:33.054Z,3.00
2024-03-02T19:22:59.486Z,3.90
2024-03-02T19:25:25.883Z,4.63
2024-03-02T19:27:52.330Z,3.97
2024-03-02T19:30:18.899Z,4.43
2024-03-02T19:32:45.364Z,6.73
2024-03-02T19:35:14.624Z,6.50
2024-03-02T19:37:42.349Z,5.63
2024-03-02T19:40:10.937Z,10.17
2024-03-02T19:42:37.738Z,5.60
2024-03-02T19:45:07.871Z,12.73
2024-03-02T19:47:34.383Z,6.93
2024-03-02T19:50:00.863Z,5.77
2024-03-02T19:52:28.624Z,3.90
2024-03-02T19:54:55.089Z,3.57
2024-03-02T19:57:21.577Z,3.13
2024-03-02T19:59:47.995Z,3.23
2024-03-02T20:02:15.961Z,3.97
2024-03-02T20:04:44.766Z,3.87
2024-03-02T20:07:11.397Z,3.47
2024-03-02T20:09:38.193Z,4.07
2024-03-02T20:12:05.789Z,4.00
2024-03-02T20:14:32.274Z,3.47
2024-03-02T20:16:58.653Z,4.07
2024-03-02T20:19:25.100Z,3.60
2024-03-02T20:21:51.520Z,3.60
2024-03-02T20:24:17.905Z,3.73
2024-03-02T20:26:44.322Z,3.93
2024-03-02T20:29:10.676Z,4.10
2024-03-02T20:31:38.296Z,4.33
2024-03-02T20:34:04.762Z,4.00
2024-03-02T20:36:31.160Z,3.90
2024-03-02T20:38:57.722Z,4.30
2024-03-02T20:41:24.088Z,3.87
2024-03-02T20:43:50.633Z,3.90
2024-03-02T20:46:17.226Z,4.10
2024-03-02T20:48:44.711Z,3.90
2024-03-02T20:51:11.143Z,4.27
2024-03-02T20:53:37.559Z,3.90
2024-03-02T20:56:04.595Z,5.07
2024-03-02T20:58:31.329Z,4.10
2024-03-02T21:00:57.961Z,4.47
2024-03-02T21:03:24.529Z,4.87
2024-03-02T21:05:50.927Z,5.00
2024-03-02T21:08:17.355Z,5.20
2024-03-02T21:10:46.218Z,4.40
2024-03-02T21:13:13.532Z,4.77
2024-03-02T21:15:39.967Z,3.63
2024-03-02T21:18:06.461Z,4.23
2024-03-02T21:20:32.868Z,3.90
2024-03-02T21:22:59.305Z,3.57
2024-03-02T21:25:28.248Z,4.03
2024-03-02T21:27:55.175Z,4.07
2024-03-02T21:30:21.640Z,4.20
2024-03-02T21:32:49.631Z,4.43
2024-03-02T21:35:16.264Z,4.87
2024-03-02T21:37:44.205Z,5.73
2024-03-02T21:40:12.366Z,5.07
2024-03-02T21:42:40.442Z,5.67
2024-03-02T21:45:07.489Z,5.70
2024-03-02T21:47:34.611Z,5.07
2024-03-02T21:50:01.017Z,5.27
2024-03-02T21:52:27.573Z,5.97
2024-03-02T21:54:54.030Z,5.30
2024-03-02T21:57:21.602Z,6.20
2024-03-02T21:59:48.309Z,6.00
2024-03-02T22:02:14.742Z,5.40
2024-03-02T22:04:41.315Z,5.13
2024-03-02T22:07:07.800Z,6.20
2024-03-02T22:09:35.177Z,6.30
2024-03-02T22:12:02.262Z,6.03
2024-03-02T22:14:28.648Z,4.97
2024-03-02T22:16:55.110Z,5.43
2024-03-02T22:19:21.532Z,5.53
2024-03-02T22:21:47.978Z,5.57
2024-03-02T22:24:14.802Z,5.77
2024-03-02T22:26:41.518Z,5.00
2024-03-02T22:29:07.940Z,5.17
2024-03-02T22:31:34.321Z,4.90
2024-03-02T22:34:00.737Z,4.73
2024-03-02T22:36:27.130Z,4.67
2024-03-02T22:38:53.498Z,5.83
2024-03-02T22:41:20.048Z,5.00
2024-03-02T22:43:46.848Z,5.70
2024-03-02T22:46:14.705Z,5.07
2024-03-02T22:48:41.439Z,5.00
2024-03-02T22:51:08.481Z,4.57
2024-03-02T22:53:37.318Z,5.47
2024-03-02T22:56:05.703Z,5.30
2024-03-02T22:58:32.149Z,4.93
2024-03-02T23:01:04.466Z,5.07
2024-03-02T23:03:30.888Z,5.87
2024-03-02T23:05:57.247Z,6.73
2024-03-02T23:08:23.633Z,5.10
2024-03-02T23:10:49.994Z,6.27
2024-03-02T23:13:16.491Z,6.20
2024-03-02T23:15:43.138Z,6.77
2024-03-02T23:18:09.521Z,5.93
2024-03-02T23:20:35.923Z,6.50
2024-03-02T23:23:05.502Z,6.33
2024-03-02T23:25:35.367Z,6.63
2024-03-02T23:28:02.172Z,6.60
2024-03-02T23:30:30.233Z,6.23
2024-03-02T23:32:57.459Z,6.37
2024-03-02T23:35:24.027Z,5.90
2024-03-02T23:37:51.882Z,6.53
2024-03-02T23:40:36.606Z,6.20
2024-03-02T23:43:04.298Z,6.57
2024-03-02T23:45:31.154Z,6.63
2024-03-02T23:47:57.678Z,6.07
2024-03-02T23:50:24.290Z,6.40
2024-03-02T23:52:50.732Z,6.33
2024-03-02T23:55:17.181Z,6.33
2024-03-02T23:57:43.702Z,6.70
